createdAt,value
2018-10-02T00:00:49.502Z,6.63
2018-10-02T00:03:18.718Z,9.00
2018-10-02T00:05:47.948Z,11.90
2018-10-02T00:08:17.440Z,14.30
2018-10-02T00:10:51.942Z,15.50
2018-10-02T00:13:26.267Z,13.90
2018-10-02T00:15:55.518Z,12.33
2018-10-02T00:18:24.951Z,13.10
2018-10-02T00:20:54.314Z,12.63
2018-10-02T00:23:23.533Z,13.73
2018-10-02T00:25:52.761Z,13.30
2018-10-02T00:28:21.979Z,13.53
2018-10-02T00:30:51.190Z,13.80
2018-10-02T00:33:20.402Z,14.17
2018-10-02T00:35:49.622Z,10.95
2018-10-02T00:38:18.862Z,10.47
2018-10-02T00:40:48.095Z,10.27
2018-10-02T00:43:17.323Z,10.57
2018-10-02T00:45:46.546Z,11.73
2018-10-02T00:48:15.762Z,12.07
2018-10-02T00:50:45.130Z,12.00
2018-10-02T00:53:14.339Z,14.60
2018-10-02T00:55:43.562Z,12.77
2018-10-02T00:58:12.798Z,12.20
2018-10-02T01:00:42.178Z,12.77
2018-10-02T01:03:12.656Z,12.23
2018-10-02T01:05:41.880Z,12.87
2018-10-02T01:08:11.093Z,12.53
2018-10-02T01:10:40.326Z,13.22
2018-10-02T01:13:09.553Z,13.60
2018-10-02T01:15:38.878Z,12.93
2018-10-02T01:18:08.130Z,14.07
2018-10-02T01:20:37.334Z,12.43
2018-10-02T01:23:06.586Z,12.67
2018-10-02T01:25:35.800Z,13.20
2018-10-02T01:28:05.022Z,12.73
2018-10-02T01:30:34.269Z,12.77
2018-10-02T01:33:03.527Z,11.93
2018-10-02T01:35:32.773Z,11.83
2018-10-02T01:38:01.968Z,13.20
2018-10-02T01:40:31.223Z,12.67
2018-10-02T01:43:00.449Z,12.57
2018-10-02T01:45:29.688Z,13.27
2018-10-02T01:47:58.930Z,12.50
2018-10-02T01:50:28.172Z,13.10
2018-10-02T01:52:57.386Z,13.93
2018-10-02T01:55:26.622Z,12.47
2018-10-02T01:57:55.834Z,12.07
2018-10-02T02:00:25.077Z,12.27
2018-10-02T02:02:54.302Z,11.43
2018-10-02T02:05:23.544Z,11.63
2018-10-02T02:07:52.778Z,11.03
2018-10-02T02:10:22.010Z,11.83
2018-10-02T02:12:51.230Z,11.87
2018-10-02T02:15:20.471Z,11.63
2018-10-02T02:17:49.679Z,11.43
2018-10-02T02:20:18.925Z,12.60
2018-10-02T02:22:48.146Z,11.57
2018-10-02T02:25:17.374Z,13.30
2018-10-02T02:27:46.605Z,12.07
2018-10-02T02:30:16.079Z,12.03
2018-10-02T02:32:45.316Z,12.67
2018-10-02T02:35:14.539Z,12.30
2018-10-02T02:37:45.058Z,12.10
2018-10-02T02:40:14.242Z,12.60
2018-10-02T02:42:43.450Z,13.73
2018-10-02T02:45:12.667Z,12.90
2018-10-02T02:47:47.134Z,12.53
2018-10-02T02:50:21.640Z,12.43
2018-10-02T02:52:54.019Z,12.77
2018-10-02T02:55:23.274Z,11.87
2018-10-02T02:57:52.512Z,12.83
2018-10-02T03:00:21.750Z,13.10
2018-10-02T03:02:51.039Z,12.00
2018-10-02T03:05:20.253Z,12.33
2018-10-02T03:07:49.490Z,12.07
2018-10-02T03:10:18.709Z,11.50
2018-10-02T03:12:48.186Z,12.63
2018-10-02T03:15:17.410Z,11.73
2018-10-02T03:17:46.634Z,11.47
2018-10-02T03:20:15.893Z,11.07
2018-10-02T03:22:45.122Z,11.40
2018-10-02T03:25:14.312Z,11.87
2018-10-02T03:27:43.551Z,11.47
2018-10-02T03:30:12.758Z,11.37
2018-10-02T03:32:42.000Z,11.50
2018-10-02T03:35:11.230Z,11.50
2018-10-02T03:37:40.485Z,11.43
2018-10-02T03:40:09.724Z,11.60
2018-10-02T03:42:38.931Z,11.43
2018-10-02T03:45:08.175Z,10.83
2018-10-02T03:47:37.414Z,10.70
2018-10-02T03:50:06.643Z,10.78
2018-10-02T03:52:35.866Z,9.80
2018-10-02T03:55:05.938Z,9.40
2018-10-02T03:57:35.165Z,9.65
2018-10-02T04:00:04.810Z,9.67
2018-10-02T04:02:34.051Z,9.87
2018-10-02T04:05:03.273Z,10.47
2018-10-02T04:07:33.647Z,10.55
2018-10-02T04:10:02.875Z,11.03
2018-10-02T04:12:32.106Z,10.72
2018-10-02T04:15:01.318Z,10.03
2018-10-02T04:17:30.547Z,11.20
2018-10-02T04:19:59.775Z,10.17
2018-10-02T04:22:29.003Z,10.20
2018-10-02T04:24:58.226Z,10.30
2018-10-02T04:27:27.747Z,10.23
2018-10-02T04:29:56.954Z,10.23
2018-10-02T04:32:26.166Z,10.20
2018-10-02T04:34:55.395Z,10.33
2018-10-02T04:37:24.645Z,10.53
2018-10-02T04:39:53.883Z,10.03
2018-10-02T04:42:23.099Z,9.70
2018-10-02T04:44:52.314Z,15.23
2018-10-02T04:47:21.526Z,13.80
2018-10-02T04:49:50.795Z,11.10
2018-10-02T04:52:20.001Z,9.73
2018-10-02T04:54:49.224Z,10.07
2018-10-02T04:57:18.470Z,10.07
2018-10-02T04:59:47.767Z,9.90
2018-10-02T05:02:17.019Z,10.80
2018-10-02T05:04:46.212Z,9.53
2018-10-02T05:07:15.454Z,10.47
2018-10-02T05:09:44.699Z,9.90
2018-10-02T05:12:13.918Z,11.10
2018-10-02T05:14:43.137Z,11.80
2018-10-02T05:17:12.362Z,11.53
2018-10-02T05:19:41.583Z,11.17
2018-10-02T05:22:10.815Z,11.27
2018-10-02T05:24:40.028Z,10.17
2018-10-02T05:27:09.292Z,10.77
2018-10-02T05:29:38.499Z,11.70
2018-10-02T05:32:07.737Z,11.27
2018-10-02T05:34:36.954Z,11.67
2018-10-02T05:37:06.442Z,11.57
2018-10-02T05:39:35.651Z,10.97
2018-10-02T05:42:05.012Z,12.07
2018-10-02T05:44:34.247Z,11.43
2018-10-02T05:47:03.479Z,11.08
2018-10-02T05:49:32.960Z,11.10
2018-10-02T05:52:02.178Z,11.03
2018-10-02T05:54:31.415Z,11.33
2018-10-02T05:57:00.652Z,11.00
2018-10-02T05:59:29.931Z,11.57
2018-10-02T06:01:59.364Z,10.97
2018-10-02T06:04:28.744Z,11.57
2018-10-02T06:06:57.971Z,11.35
2018-10-02T06:09:27.196Z,10.27
2018-10-02T06:11:56.444Z,10.63
2018-10-02T06:14:25.670Z,10.87
2018-10-02T06:16:54.923Z,11.07
2018-10-02T06:19:24.123Z,10.10
2018-10-02T06:21:53.336Z,10.20
2018-10-02T06:24:22.595Z,10.37
2018-10-02T06:26:51.811Z,10.35
2018-10-02T06:29:21.034Z,10.10
2018-10-02T06:31:50.263Z,10.57
2018-10-02T06:34:19.482Z,9.23
2018-10-02T06:36:48.790Z,9.43
2018-10-02T06:39:17.963Z,9.80
2018-10-02T06:41:47.235Z,9.87
2018-10-02T06:44:16.442Z,9.33
2018-10-02T06:46:45.689Z,9.43
2018-10-02T06:49:14.903Z,9.97
2018-10-02T06:51:44.247Z,9.27
2018-10-02T06:54:13.383Z,9.50
2018-10-02T06:56:42.647Z,9.17
2018-10-02T06:59:11.838Z,8.97
2018-10-02T07:01:41.052Z,9.40
2018-10-02T07:04:10.298Z,9.23
2018-10-02T07:06:39.532Z,9.07
2018-10-02T07:09:10.327Z,9.40
2018-10-02T07:11:40.451Z,9.37
2018-10-02T07:14:10.454Z,9.33
2018-10-02T07:16:39.735Z,10.40
2018-10-02T07:19:09.319Z,10.20
2018-10-02T07:21:38.543Z,9.57
2018-10-02T07:24:07.770Z,8.90
2018-10-02T07:26:37.066Z,9.07
2018-10-02T07:29:07.444Z,8.23
2018-10-02T07:31:36.668Z,7.43
2018-10-02T07:34:05.978Z,7.43
2018-10-02T07:36:35.256Z,6.70
2018-10-02T07:39:05.609Z,6.00
2018-10-02T07:41:36.123Z,5.97
2018-10-02T07:44:05.284Z,5.70
2018-10-02T07:46:37.487Z,5.53
2018-10-02T07:49:06.726Z,5.90
2018-10-02T07:51:35.938Z,5.47
2018-10-02T07:54:05.221Z,5.70
2018-10-02T07:56:34.443Z,5.47
2018-10-02T07:59:03.606Z,5.60
2018-10-02T08:01:32.847Z,5.78
2018-10-02T08:04:02.093Z,6.17
2018-10-02T08:06:32.560Z,5.60
2018-10-02T08:09:01.890Z,5.33
2018-10-02T08:11:30.995Z,5.47
2018-10-02T08:14:00.217Z,4.30
2018-10-02T08:16:29.432Z,4.13
2018-10-02T08:18:58.682Z,4.50
2018-10-02T08:21:27.921Z,3.70
2018-10-02T08:23:57.190Z,4.17
2018-10-02T08:26:26.430Z,3.60
2018-10-02T08:28:55.616Z,3.60
2018-10-02T08:31:24.832Z,3.67
2018-10-02T08:33:54.065Z,3.30
2018-10-02T08:36:23.373Z,4.17
2018-10-02T08:38:52.624Z,3.90
2018-10-02T08:41:22.088Z,3.87
2018-10-02T08:43:51.491Z,3.80
2018-10-02T08:46:20.671Z,2.80
2018-10-02T08:48:50.089Z,2.80
2018-10-02T08:51:19.324Z,2.67
2018-10-02T08:53:48.568Z,2.43
2018-10-02T08:56:17.783Z,2.73
2018-10-02T08:58:47.015Z,2.77
2018-10-02T09:01:16.522Z,2.83
2018-10-02T09:03:45.739Z,2.90
2018-10-02T09:06:14.994Z,3.17
2018-10-02T09:08:44.218Z,3.57
2018-10-02T09:11:13.430Z,3.60
2018-10-02T09:13:42.690Z,3.63
2018-10-02T09:16:11.995Z,3.57
2018-10-02T09:18:41.199Z,3.17
2018-10-02T09:21:10.381Z,3.10
2018-10-02T09:23:39.587Z,3.50
2018-10-02T09:26:08.817Z,3.07
2018-10-02T09:28:38.111Z,3.20
2018-10-02T09:31:12.596Z,2.63
2018-10-02T09:33:46.937Z,2.97
2018-10-02T09:36:21.217Z,2.77
2018-10-02T09:38:55.598Z,2.70
2018-10-02T09:41:29.918Z,2.50
2018-10-02T09:44:00.780Z,2.45
2018-10-02T09:46:29.960Z,2.40
2018-10-02T09:48:59.269Z,2.73
2018-10-02T09:51:28.566Z,2.50
2018-10-02T09:53:57.794Z,2.63
2018-10-02T09:56:31.172Z,2.90
2018-10-02T09:59:00.375Z,2.37
2018-10-02T10:01:34.727Z,2.90
2018-10-02T10:04:04.085Z,3.33
2018-10-02T10:06:33.309Z,3.03
2018-10-02T10:09:02.551Z,3.40
2018-10-02T10:11:31.780Z,2.97
2018-10-02T10:14:01.032Z,3.13
2018-10-02T10:16:30.332Z,3.67
2018-10-02T10:18:59.470Z,3.17
2018-10-02T10:21:28.686Z,2.77
2018-10-02T10:23:57.906Z,2.57
2018-10-02T10:26:27.212Z,2.40
2018-10-02T10:28:56.663Z,2.10
2018-10-02T10:31:25.879Z,2.40
2018-10-02T10:33:55.051Z,2.13
2018-10-02T10:36:24.287Z,2.30
2018-10-02T10:38:53.511Z,2.00
2018-10-02T10:41:22.729Z,2.13
2018-10-02T10:43:51.940Z,2.67
2018-10-02T10:46:21.186Z,2.00
2018-10-02T10:48:50.419Z,1.90
2018-10-02T10:51:19.703Z,2.17
2018-10-02T10:53:48.931Z,2.23
2018-10-02T10:56:18.212Z,2.20
2018-10-02T10:58:48.660Z,1.80
2018-10-02T11:01:17.886Z,2.02
2018-10-02T11:03:47.144Z,1.87
2018-10-02T11:06:16.370Z,1.60
2018-10-02T11:08:45.597Z,2.10
2018-10-02T11:11:14.835Z,1.90
2018-10-02T11:13:44.057Z,2.03
2018-10-02T11:16:13.282Z,2.50
2018-10-02T11:18:42.502Z,2.53
2018-10-02T11:21:11.735Z,1.90
2018-10-02T11:23:40.991Z,2.23
2018-10-02T11:26:10.241Z,2.10
2018-10-02T11:28:39.459Z,1.80
2018-10-02T11:31:08.908Z,1.80
2018-10-02T11:33:38.360Z,1.63
2018-10-02T11:36:07.575Z,1.87
2018-10-02T11:38:36.781Z,1.93
2018-10-02T11:41:06.066Z,1.43
2018-10-02T11:43:35.354Z,1.70
2018-10-02T11:46:04.577Z,1.40
2018-10-02T11:48:33.875Z,2.00
2018-10-02T11:51:03.290Z,1.80
2018-10-02T11:53:32.495Z,1.90
2018-10-02T11:56:01.712Z,2.03
2018-10-02T11:58:30.993Z,2.00
2018-10-02T12:01:00.264Z,1.90
2018-10-02T12:03:29.544Z,1.97
2018-10-02T12:05:58.722Z,1.80
2018-10-02T12:08:27.956Z,2.03
2018-10-02T12:10:57.182Z,2.00
2018-10-02T12:13:26.454Z,1.80
2018-10-02T12:15:55.722Z,2.10
2018-10-02T12:18:24.980Z,1.80
2018-10-02T12:20:54.227Z,1.80
2018-10-02T12:23:23.462Z,1.30
2018-10-02T12:25:52.710Z,1.50
2018-10-02T12:28:21.923Z,1.60
2018-10-02T12:30:51.280Z,3.30
2018-10-02T12:33:21.721Z,1.60
2018-10-02T12:35:50.962Z,1.40
2018-10-02T12:38:20.215Z,1.30
2018-10-02T12:40:49.468Z,1.50
2018-10-02T12:43:18.700Z,1.63
2018-10-02T12:45:47.937Z,1.63
2018-10-02T12:48:17.174Z,1.67
2018-10-02T12:50:46.395Z,1.40
2018-10-02T12:53:15.625Z,1.60
2018-10-02T12:55:44.835Z,1.47
2018-10-02T12:58:14.058Z,1.70
2018-10-02T13:00:43.283Z,1.50
2018-10-02T13:03:12.520Z,1.27
2018-10-02T13:05:41.739Z,1.67
2018-10-02T13:08:11.002Z,1.90
2018-10-02T13:10:40.278Z,1.63
2018-10-02T13:13:09.561Z,1.80
2018-10-02T13:15:38.755Z,1.80
2018-10-02T13:18:08.162Z,1.72
2018-10-02T13:20:37.387Z,1.73
2018-10-02T13:23:06.615Z,1.90
2018-10-02T13:25:35.839Z,1.53
2018-10-02T13:28:05.066Z,1.90
2018-10-02T13:30:34.303Z,1.50
2018-10-02T13:33:03.531Z,2.00
2018-10-02T13:35:32.850Z,1.67
2018-10-02T13:38:02.210Z,1.63
2018-10-02T13:40:31.339Z,2.03
2018-10-02T13:43:00.667Z,1.50
2018-10-02T13:45:29.886Z,2.00
2018-10-02T13:47:59.151Z,2.00
2018-10-02T13:50:28.401Z,1.83
2018-10-02T13:52:57.703Z,1.87
2018-10-02T13:55:26.960Z,1.83
2018-10-02T13:57:56.222Z,2.07
2018-10-02T14:00:25.427Z,2.00
2018-10-02T14:02:54.675Z,2.25
2018-10-02T14:05:23.908Z,2.23
2018-10-02T14:07:54.388Z,2.10
2018-10-02T14:10:23.647Z,1.97
2018-10-02T14:12:52.927Z,2.30
2018-10-02T14:15:22.221Z,2.70
2018-10-02T14:17:51.390Z,1.90
2018-10-02T14:20:20.638Z,2.10
2018-10-02T14:22:49.865Z,2.00
2018-10-02T14:25:19.114Z,2.15
2018-10-02T14:27:48.331Z,2.07
2018-10-02T14:30:17.547Z,2.17
2018-10-02T14:32:46.774Z,2.17
2018-10-02T14:35:16.003Z,3.13
2018-10-02T14:37:45.222Z,2.57
2018-10-02T14:40:14.642Z,2.90
2018-10-02T14:42:43.867Z,3.13
2018-10-02T14:45:13.083Z,2.67
2018-10-02T14:47:42.299Z,2.17
2018-10-02T14:50:11.518Z,2.20
2018-10-02T14:52:40.799Z,2.20
2018-10-02T14:55:10.019Z,2.23
2018-10-02T14:57:39.239Z,2.30
2018-10-02T15:00:08.753Z,2.50
2018-10-02T15:02:37.954Z,2.37
2018-10-02T15:05:07.215Z,2.20
2018-10-02T15:07:36.538Z,2.40
2018-10-02T15:10:05.752Z,2.73
2018-10-02T15:12:35.010Z,2.43
2018-10-02T15:15:04.273Z,2.33
2018-10-02T15:17:33.475Z,2.80
2018-10-02T15:20:02.718Z,2.70
2018-10-02T15:22:31.934Z,2.60
2018-10-02T15:25:01.165Z,2.30
2018-10-02T15:27:30.423Z,3.00
2018-10-02T15:29:59.750Z,3.53
2018-10-02T15:32:30.200Z,2.90
2018-10-02T15:34:59.430Z,3.73
2018-10-02T15:37:28.708Z,3.80
2018-10-02T15:39:57.882Z,3.20
2018-10-02T15:42:27.110Z,2.97
2018-10-02T15:44:56.344Z,3.10
2018-10-02T15:47:25.569Z,2.80
2018-10-02T15:49:54.818Z,2.43
2018-10-02T15:52:24.051Z,2.87
2018-10-02T15:54:53.280Z,3.03
2018-10-02T15:57:22.515Z,3.17
2018-10-02T15:59:51.746Z,3.00
2018-10-02T16:02:20.983Z,2.90
2018-10-02T16:04:50.210Z,2.50
2018-10-02T16:07:19.427Z,3.00
2018-10-02T16:09:48.647Z,2.73
2018-10-02T16:12:17.862Z,3.03
2018-10-02T16:14:47.083Z,3.00
2018-10-02T16:17:16.283Z,2.57
2018-10-02T16:19:45.524Z,3.90
2018-10-02T16:22:14.801Z,3.80
2018-10-02T16:24:44.106Z,2.73
2018-10-02T16:27:13.307Z,3.07
2018-10-02T16:29:42.530Z,2.87
2018-10-02T16:32:13.021Z,3.03
2018-10-02T16:34:49.288Z,3.17
2018-10-02T16:37:11.918Z,3.30
2018-10-02T16:39:41.130Z,3.30
2018-10-02T16:42:10.396Z,2.97
2018-10-02T16:44:39.635Z,2.70
2018-10-02T16:47:08.893Z,3.00
2018-10-02T16:49:38.095Z,2.77
2018-10-02T16:52:07.493Z,3.90
2018-10-02T16:54:36.813Z,4.20
2018-10-02T16:57:06.216Z,3.60
2018-10-02T16:59:35.421Z,3.37
2018-10-02T17:02:04.655Z,3.95
2018-10-02T17:04:34.319Z,4.23
2018-10-02T17:07:03.506Z,3.73
2018-10-02T17:09:32.732Z,4.07
2018-10-02T17:12:02.002Z,4.33
2018-10-02T17:14:31.215Z,3.50
2018-10-02T17:17:00.466Z,3.65
2018-10-02T17:19:29.683Z,3.47
2018-10-02T17:21:58.927Z,3.73
2018-10-02T17:24:28.296Z,3.97
2018-10-02T17:26:57.650Z,3.90
2018-10-02T17:29:26.876Z,3.70
2018-10-02T17:31:56.116Z,4.50
2018-10-02T17:34:25.448Z,3.77
2018-10-02T17:36:54.696Z,4.00
2018-10-02T17:39:23.922Z,4.70
2018-10-02T17:41:53.156Z,4.70
2018-10-02T17:44:22.388Z,4.47
2018-10-02T17:46:51.606Z,4.90
2018-10-02T17:49:20.847Z,4.57
2018-10-02T17:51:50.087Z,5.33
2018-10-02T17:54:19.330Z,5.00
2018-10-02T17:56:48.568Z,6.50
2018-10-02T17:59:17.794Z,4.60
2018-10-02T18:01:47.030Z,4.00
2018-10-02T18:04:16.246Z,4.28
2018-10-02T18:06:45.546Z,4.00
2018-10-02T18:09:16.511Z,4.40
2018-10-02T18:11:45.714Z,3.90
2018-10-02T18:14:14.952Z,3.87
2018-10-02T18:16:44.200Z,4.30
2018-10-02T18:19:13.427Z,4.67
2018-10-02T18:21:42.659Z,4.00
2018-10-02T18:24:11.882Z,5.57
2018-10-02T18:26:41.114Z,3.70
2018-10-02T18:29:10.326Z,4.03
2018-10-02T18:31:39.559Z,4.10
2018-10-02T18:34:08.799Z,4.20
2018-10-02T18:36:38.052Z,4.90
2018-10-02T18:39:07.683Z,4.90
2018-10-02T18:41:36.939Z,3.70
2018-10-02T18:44:06.153Z,4.07
2018-10-02T18:46:35.846Z,3.60
2018-10-02T18:49:05.487Z,4.23
2018-10-02T18:51:34.715Z,3.67
2018-10-02T18:54:03.959Z,4.50
2018-10-02T18:56:33.249Z,5.10
2018-10-02T18:59:02.416Z,3.90
2018-10-02T19:01:31.691Z,4.00
2018-10-02T19:04:00.955Z,3.90
2018-10-02T19:06:30.314Z,3.37
2018-10-02T19:09:04.848Z,3.50
2018-10-02T19:11:39.958Z,3.00
2018-10-02T19:14:09.441Z,3.65
2018-10-02T19:16:38.679Z,4.43
2018-10-02T19:19:12.023Z,3.50
2018-10-02T19:21:41.443Z,3.37
2018-10-02T19:24:10.687Z,3.40
2018-10-02T19:26:40.471Z,2.83
2018-10-02T19:29:09.854Z,3.33
2018-10-02T19:31:44.194Z,3.27
2018-10-02T19:34:13.530Z,2.93
2018-10-02T19:36:42.748Z,2.90
2018-10-02T19:39:19.278Z,3.00
2018-10-02T19:41:48.528Z,2.80
2018-10-02T19:44:18.449Z,3.95
2018-10-02T19:46:52.735Z,5.43
2018-10-02T19:49:23.493Z,5.13
2018-10-02T19:51:57.926Z,4.20
2018-10-02T19:54:27.327Z,2.27
2018-10-02T19:56:56.726Z,2.90
2018-10-02T19:59:25.982Z,2.50
2018-10-02T20:01:55.190Z,2.47
2018-10-02T20:04:24.582Z,2.58
2018-10-02T20:06:53.791Z,2.50
2018-10-02T20:09:26.003Z,3.00
2018-10-02T20:11:55.205Z,2.40
2018-10-02T20:14:25.683Z,2.47
2018-10-02T20:16:54.915Z,2.87
2018-10-02T20:19:24.167Z,2.60
2018-10-02T20:21:53.461Z,2.30
2018-10-02T20:24:22.678Z,2.30
2018-10-02T20:26:51.886Z,2.37
2018-10-02T20:29:21.118Z,2.20
2018-10-02T20:31:51.582Z,2.33
2018-10-02T20:34:20.818Z,1.53
2018-10-02T20:36:50.037Z,1.82
2018-10-02T20:39:19.267Z,2.07
2018-10-02T20:41:48.523Z,2.90
2018-10-02T20:44:17.747Z,2.37
2018-10-02T20:46:46.974Z,1.82
2018-10-02T20:49:16.289Z,2.00
2018-10-02T20:51:45.426Z,1.63
2018-10-02T20:54:14.699Z,1.80
2018-10-02T20:56:43.929Z,1.57
2018-10-02T20:59:13.174Z,2.23
2018-10-02T21:01:42.394Z,1.70
2018-10-02T21:04:11.622Z,1.90
2018-10-02T21:06:40.860Z,2.00
2018-10-02T21:09:10.092Z,1.73
2018-10-02T21:11:39.742Z,1.90
2018-10-02T21:14:09.858Z,2.27
2018-10-02T21:16:39.063Z,2.40
2018-10-02T21:19:08.339Z,1.93
2018-10-02T21:21:37.593Z,2.00
2018-10-02T21:24:06.808Z,2.37
2018-10-02T21:26:36.036Z,2.40
2018-10-02T21:29:05.338Z,1.47
2018-10-02T21:31:34.512Z,2.00
2018-10-02T21:34:03.766Z,1.70
2018-10-02T21:36:32.974Z,2.00
2018-10-02T21:39:02.418Z,1.90
2018-10-02T21:41:31.641Z,2.20
2018-10-02T21:44:00.851Z,2.60
2018-10-02T21:46:30.067Z,2.40
2018-10-02T21:48:59.275Z,2.70
2018-10-02T21:51:28.493Z,2.30
2018-10-02T21:53:57.721Z,2.43
2018-10-02T21:56:26.920Z,2.30
2018-10-02T21:58:56.139Z,2.37
2018-10-02T22:01:29.467Z,3.67
2018-10-02T22:03:58.683Z,2.37
2018-10-02T22:06:27.899Z,2.63
2018-10-02T22:08:57.164Z,1.97
2018-10-02T22:11:26.368Z,2.43
2018-10-02T22:13:55.592Z,1.90
2018-10-02T22:16:25.867Z,2.30
2018-10-02T22:18:55.118Z,2.37
2018-10-02T22:21:24.361Z,2.50
2018-10-02T22:23:53.649Z,2.70
2018-10-02T22:26:22.823Z,2.43
2018-10-02T22:28:52.120Z,2.50
2018-10-02T22:31:21.343Z,2.50
2018-10-02T22:33:50.587Z,2.47
2018-10-02T22:36:19.956Z,2.40
2018-10-02T22:38:49.242Z,2.80
2018-10-02T22:41:18.427Z,2.50
2018-10-02T22:43:48.265Z,2.63
2018-10-02T22:46:17.547Z,2.63
2018-10-02T22:48:46.799Z,2.57
2018-10-02T22:51:16.050Z,2.10
2018-10-02T22:53:45.302Z,2.30
2018-10-02T22:56:14.623Z,2.70
2018-10-02T22:58:43.835Z,2.53
2018-10-02T23:01:13.055Z,2.80
2018-10-02T23:03:42.299Z,2.40
2018-10-02T23:06:11.834Z,2.40
2018-10-02T23:08:41.093Z,2.50
2018-10-02T23:11:10.942Z,2.63
2018-10-02T23:13:40.199Z,2.70
2018-10-02T23:16:09.413Z,2.50
2018-10-02T23:18:38.650Z,2.60
2018-10-02T23:21:08.050Z,2.50
2018-10-02T23:23:37.487Z,2.40
2018-10-02T23:26:06.838Z,2.60
2018-10-02T23:28:36.045Z,2.80
2018-10-02T23:31:05.275Z,2.70
2018-10-02T23:33:34.493Z,2.57
2018-10-02T23:36:04.137Z,2.60
2018-10-02T23:38:33.537Z,2.70
2018-10-02T23:41:03.634Z,2.83
2018-10-02T23:43:32.866Z,2.83
2018-10-02T23:46:02.095Z,2.90
2018-10-02T23:48:31.313Z,2.90
2018-10-02T23:51:00.540Z,2.67
2018-10-02T23:53:29.779Z,2.87
2018-10-02T23:55:59.057Z,3.00
2018-10-02T23:58:28.274Z,2.60
